sensor_id;sensor_type;location;lat;lon;timestamp;temperature;humidity
63051;SHT30;49136;47.416;19.402;2022-07-24T00:01:03;20.18;87.22
63051;SHT30;49136;47.416;19.402;2022-07-24T00:03:28;20.18;87.29
63051;SHT30;49136;47.416;19.402;2022-07-24T00:05:54;20.20;86.87
63051;SHT30;49136;47.416;19.402;2022-07-24T00:08:19;20.27;87.12
63051;SHT30;49136;47.416;19.402;2022-07-24T00:10:44;20.33;87.33
63051;SHT30;49136;47.416;19.402;2022-07-24T00:13:10;20.44;87.11
63051;SHT30;49136;47.416;19.402;2022-07-24T00:15:35;20.61;85.92
63051;SHT30;49136;47.416;19.402;2022-07-24T00:18:01;20.73;85.87
63051;SHT30;49136;47.416;19.402;2022-07-24T00:20:26;20.90;84.81
63051;SHT30;49136;47.416;19.402;2022-07-24T00:22:52;21.00;84.49
63051;SHT30;49136;47.416;19.402;2022-07-24T00:25:17;21.11;84.22
63051;SHT30;49136;47.416;19.402;2022-07-24T00:27:42;21.28;83.69
63051;SHT30;49136;47.416;19.402;2022-07-24T00:30:08;21.51;82.59
63051;SHT30;49136;47.416;19.402;2022-07-24T00:32:34;21.56;82.23
63051;SHT30;49136;47.416;19.402;2022-07-24T00:34:59;21.59;82.73
63051;SHT30;49136;47.416;19.402;2022-07-24T00:37:25;21.69;82.19
63051;SHT30;49136;47.416;19.402;2022-07-24T00:39:50;21.87;80.88
63051;SHT30;49136;47.416;19.402;2022-07-24T00:42:15;21.96;80.97
63051;SHT30;49136;47.416;19.402;2022-07-24T00:44:42;21.97;82.04
63051;SHT30;49136;47.416;19.402;2022-07-24T00:47:07;21.94;84.44
63051;SHT30;49136;47.416;19.402;2022-07-24T00:49:32;22.05;82.31
63051;SHT30;49136;47.416;19.402;2022-07-24T00:51:58;22.04;82.20
63051;SHT30;49136;47.416;19.402;2022-07-24T00:54:24;21.86;83.16
63051;SHT30;49136;47.416;19.402;2022-07-24T00:56:52;21.72;83.34
63051;SHT30;49136;47.416;19.402;2022-07-24T00:59:17;21.58;84.22
63051;SHT30;49136;47.416;19.402;2022-07-24T01:01:44;21.53;83.89
63051;SHT30;49136;47.416;19.402;2022-07-24T01:04:10;21.62;83.64
63051;SHT30;49136;47.416;19.402;2022-07-24T01:06:36;21.59;83.99
63051;SHT30;49136;47.416;19.402;2022-07-24T01:09:02;21.62;83.44
63051;SHT30;49136;47.416;19.402;2022-07-24T01:11:28;21.63;83.48
63051;SHT30;49136;47.416;19.402;2022-07-24T01:13:54;21.63;84.24
63051;SHT30;49136;47.416;19.402;2022-07-24T01:16:20;21.58;84.57
63051;SHT30;49136;47.416;19.402;2022-07-24T01:18:45;21.52;84.68
63051;SHT30;49136;47.416;19.402;2022-07-24T01:21:11;21.55;85.10
63051;SHT30;49136;47.416;19.402;2022-07-24T01:23:36;21.51;85.46
63051;SHT30;49136;47.416;19.402;2022-07-24T01:26:02;21.51;85.34
63051;SHT30;49136;47.416;19.402;2022-07-24T01:28:28;21.53;84.56
63051;SHT30;49136;47.416;19.402;2022-07-24T01:30:53;21.53;84.88
63051;SHT30;49136;47.416;19.402;2022-07-24T01:33:19;21.52;84.97
63051;SHT30;49136;47.416;19.402;2022-07-24T01:35:45;21.49;85.43
63051;SHT30;49136;47.416;19.402;2022-07-24T01:38:11;21.48;85.65
63051;SHT30;49136;47.416;19.402;2022-07-24T01:40:40;21.51;85.30
63051;SHT30;49136;47.416;19.402;2022-07-24T01:43:06;21.51;85.49
63051;SHT30;49136;47.416;19.402;2022-07-24T01:45:32;21.45;86.32
63051;SHT30;49136;47.416;19.402;2022-07-24T01:47:57;21.46;85.63
63051;SHT30;49136;47.416;19.402;2022-07-24T01:50:23;21.44;85.88
63051;SHT30;49136;47.416;19.402;2022-07-24T01:52:48;21.45;85.45
63051;SHT30;49136;47.416;19.402;2022-07-24T01:55:14;21.75;84.18
63051;SHT30;49136;47.416;19.402;2022-07-24T01:57:39;22.12;82.45
63051;SHT30;49136;47.416;19.402;2022-07-24T02:00:07;22.31;81.57
63051;SHT30;49136;47.416;19.402;2022-07-24T02:02:37;22.41;81.59
63051;SHT30;49136;47.416;19.402;2022-07-24T02:05:02;22.49;80.94
63051;SHT30;49136;47.416;19.402;2022-07-24T02:07:28;22.71;79.75
63051;SHT30;49136;47.416;19.402;2022-07-24T02:09:53;22.69;79.74
63051;SHT30;49136;47.416;19.402;2022-07-24T02:12:18;22.88;78.27
63051;SHT30;49136;47.416;19.402;2022-07-24T02:14:44;23.00;77.67
63051;SHT30;49136;47.416;19.402;2022-07-24T02:17:09;22.90;78.33
63051;SHT30;49136;47.416;19.402;2022-07-24T02:19:35;22.84;79.71
63051;SHT30;49136;47.416;19.402;2022-07-24T02:22:00;22.73;79.24
63051;SHT30;49136;47.416;19.402;2022-07-24T02:24:25;22.74;79.77
63051;SHT30;49136;47.416;19.402;2022-07-24T02:26:51;22.71;80.29
63051;SHT30;49136;47.416;19.402;2022-07-24T02:29:16;22.63;81.47
63051;SHT30;49136;47.416;19.402;2022-07-24T02:31:42;22.63;80.76
63051;SHT30;49136;47.416;19.402;2022-07-24T02:34:07;22.56;80.71
63051;SHT30;49136;47.416;19.402;2022-07-24T02:36:33;22.52;82.14
63051;SHT30;49136;47.416;19.402;2022-07-24T02:38:58;22.42;82.69
63051;SHT30;49136;47.416;19.402;2022-07-24T02:41:24;22.34;82.66
63051;SHT30;49136;47.416;19.402;2022-07-24T02:43:49;22.28;82.44
63051;SHT30;49136;47.416;19.402;2022-07-24T02:46:15;22.32;82.29
63051;SHT30;49136;47.416;19.402;2022-07-24T02:48:40;22.24;82.69
63051;SHT30;49136;47.416;19.402;2022-07-24T02:51:05;22.15;83.74
63051;SHT30;49136;47.416;19.402;2022-07-24T02:53:31;22.08;83.50
63051;SHT30;49136;47.416;19.402;2022-07-24T02:55:56;22.08;83.89
63051;SHT30;49136;47.416;19.402;2022-07-24T02:58:22;21.96;85.05
63051;SHT30;49136;47.416;19.402;2022-07-24T03:00:47;21.89;84.86
63051;SHT30;49136;47.416;19.402;2022-07-24T03:03:13;21.80;85.98
63051;SHT30;49136;47.416;19.402;2022-07-24T03:05:39;21.75;85.96
63051;SHT30;49136;47.416;19.402;2022-07-24T03:08:04;21.72;85.98
63051;SHT30;49136;47.416;19.402;2022-07-24T03:10:30;21.72;85.35
63051;SHT30;49136;47.416;19.402;2022-07-24T03:12:55;21.70;85.02
63051;SHT30;49136;47.416;19.402;2022-07-24T03:15:20;21.70;84.97
63051;SHT30;49136;47.416;19.402;2022-07-24T03:17:54;21.67;85.02
63051;SHT30;49136;47.416;19.402;2022-07-24T03:20:21;21.60;85.43
63051;SHT30;49136;47.416;19.402;2022-07-24T03:22:46;21.55;85.09
63051;SHT30;49136;47.416;19.402;2022-07-24T03:25:12;21.51;85.38
63051;SHT30;49136;47.416;19.402;2022-07-24T03:27:38;21.51;86.09
63051;SHT30;49136;47.416;19.402;2022-07-24T03:30:05;21.48;86.30
63051;SHT30;49136;47.416;19.402;2022-07-24T03:32:31;21.48;86.12
63051;SHT30;49136;47.416;19.402;2022-07-24T03:34:56;21.44;86.87
63051;SHT30;49136;47.416;19.402;2022-07-24T03:37:21;21.41;86.73
63051;SHT30;49136;47.416;19.402;2022-07-24T03:39:47;21.37;87.10
63051;SHT30;49136;47.416;19.402;2022-07-24T03:42:12;21.35;87.15
63051;SHT30;49136;47.416;19.402;2022-07-24T03:44:38;21.37;86.81
63051;SHT30;49136;47.416;19.402;2022-07-24T03:47:03;21.35;87.04
63051;SHT30;49136;47.416;19.402;2022-07-24T03:49:29;21.30;86.85
63051;SHT30;49136;47.416;19.402;2022-07-24T03:51:54;21.28;87.11
63051;SHT30;49136;47.416;19.402;2022-07-24T03:54:20;21.27;87.06
63051;SHT30;49136;47.416;19.402;2022-07-24T03:56:47;21.27;86.89
63051;SHT30;49136;47.416;19.402;2022-07-24T03:59:12;21.25;86.22
63051;SHT30;49136;47.416;19.402;2022-07-24T04:01:38;21.38;86.06
63051;SHT30;49136;47.416;19.402;2022-07-24T04:04:03;21.58;85.93
63051;SHT30;49136;47.416;19.402;2022-07-24T04:06:33;21.59;85.69
63051;SHT30;49136;47.416;19.402;2022-07-24T04:08:59;21.67;85.82
63051;SHT30;49136;47.416;19.402;2022-07-24T04:11:25;21.90;84.67
63051;SHT30;49136;47.416;19.402;2022-07-24T04:13:50;22.00;84.28
63051;SHT30;49136;47.416;19.402;2022-07-24T04:16:16;22.08;85.00
63051;SHT30;49136;47.416;19.402;2022-07-24T04:18:41;22.15;84.71
63051;SHT30;49136;47.416;19.402;2022-07-24T04:21:07;22.28;84.01
63051;SHT30;49136;47.416;19.402;2022-07-24T04:23:32;22.45;84.44
63051;SHT30;49136;47.416;19.402;2022-07-24T04:25:58;22.59;83.61
63051;SHT30;49136;47.416;19.402;2022-07-24T04:28:24;22.69;82.80
63051;SHT30;49136;47.416;19.402;2022-07-24T04:30:49;22.90;81.72
63051;SHT30;49136;47.416;19.402;2022-07-24T04:33:14;23.16;80.47
63051;SHT30;49136;47.416;19.402;2022-07-24T04:35:40;23.41;79.20
63051;SHT30;49136;47.416;19.402;2022-07-24T04:38:05;23.75;78.77
63051;SHT30;49136;47.416;19.402;2022-07-24T04:40:31;24.01;79.94
63051;SHT30;49136;47.416;19.402;2022-07-24T04:42:56;24.26;78.93
63051;SHT30;49136;47.416;19.402;2022-07-24T04:45:22;24.73;78.37
63051;SHT30;49136;47.416;19.402;2022-07-24T04:47:47;25.16;74.99
63051;SHT30;49136;47.416;19.402;2022-07-24T04:50:13;25.54;74.87
63051;SHT30;49136;47.416;19.402;2022-07-24T04:52:38;25.70;75.02
63051;SHT30;49136;47.416;19.402;2022-07-24T04:55:04;25.56;74.22
63051;SHT30;49136;47.416;19.402;2022-07-24T04:57:30;25.44;73.75
63051;SHT30;49136;47.416;19.402;2022-07-24T04:59:55;25.43;73.80
63051;SHT30;49136;47.416;19.402;2022-07-24T05:02:21;25.32;74.57
63051;SHT30;49136;47.416;19.402;2022-07-24T05:04:46;25.15;75.00
63051;SHT30;49136;47.416;19.402;2022-07-24T05:07:12;25.06;72.06
63051;SHT30;49136;47.416;19.402;2022-07-24T05:09:37;25.06;74.43
63051;SHT30;49136;47.416;19.402;2022-07-24T05:12:03;24.99;72.79
63051;SHT30;49136;47.416;19.402;2022-07-24T05:14:28;24.95;73.67
63051;SHT30;49136;47.416;19.402;2022-07-24T05:16:54;24.78;75.97
63051;SHT30;49136;47.416;19.402;2022-07-24T05:19:19;24.66;73.44
63051;SHT30;49136;47.416;19.402;2022-07-24T05:21:44;24.68;73.51
63051;SHT30;49136;47.416;19.402;2022-07-24T05:24:10;24.75;74.59
63051;SHT30;49136;47.416;19.402;2022-07-24T05:26:35;24.80;74.65
63051;SHT30;49136;47.416;19.402;2022-07-24T05:29:02;24.80;73.21
63051;SHT30;49136;47.416;19.402;2022-07-24T05:31:27;24.95;72.98
63051;SHT30;49136;47.416;19.402;2022-07-24T05:33:53;25.01;74.59
63051;SHT30;49136;47.416;19.402;2022-07-24T05:36:19;25.12;74.58
63051;SHT30;49136;47.416;19.402;2022-07-24T05:38:45;25.14;73.54
63051;SHT30;49136;47.416;19.402;2022-07-24T05:41:11;25.18;73.39
63051;SHT30;49136;47.416;19.402;2022-07-24T05:43:37;25.23;72.63
63051;SHT30;49136;47.416;19.402;2022-07-24T05:46:03;25.37;73.67
63051;SHT30;49136;47.416;19.402;2022-07-24T05:48:28;25.40;72.97
63051;SHT30;49136;47.416;19.402;2022-07-24T05:50:54;25.39;73.09
63051;SHT30;49136;47.416;19.402;2022-07-24T05:53:20;25.53;74.21
63051;SHT30;49136;47.416;19.402;2022-07-24T05:55:45;25.93;71.37
63051;SHT30;49136;47.416;19.402;2022-07-24T05:58:11;26.01;69.89
63051;SHT30;49136;47.416;19.402;2022-07-24T06:00:36;26.06;68.80
63051;SHT30;49136;47.416;19.402;2022-07-24T06:03:01;26.08;68.89
63051;SHT30;49136;47.416;19.402;2022-07-24T06:05:27;25.96;68.79
63051;SHT30;49136;47.416;19.402;2022-07-24T06:07:52;26.01;69.70
63051;SHT30;49136;47.416;19.402;2022-07-24T06:10:18;25.96;69.86
63051;SHT30;49136;47.416;19.402;2022-07-24T06:12:43;26.32;68.55
63051;SHT30;49136;47.416;19.402;2022-07-24T06:15:08;26.39;67.80
63051;SHT30;49136;47.416;19.402;2022-07-24T06:17:34;26.43;68.51
63051;SHT30;49136;47.416;19.402;2022-07-24T06:19:59;26.34;68.57
63051;SHT30;49136;47.416;19.402;2022-07-24T06:22:25;26.57;68.03
63051;SHT30;49136;47.416;19.402;2022-07-24T06:24:50;26.64;67.53
63051;SHT30;49136;47.416;19.402;2022-07-24T06:27:16;27.13;67.14
63051;SHT30;49136;47.416;19.402;2022-07-24T06:29:41;27.36;65.71
63051;SHT30;49136;47.416;19.402;2022-07-24T06:32:07;27.33;65.57
63051;SHT30;49136;47.416;19.402;2022-07-24T06:34:32;27.57;65.45
63051;SHT30;49136;47.416;19.402;2022-07-24T06:36:57;27.63;64.99
63051;SHT30;49136;47.416;19.402;2022-07-24T06:39:23;27.69;64.91
63051;SHT30;49136;47.416;19.402;2022-07-24T06:41:48;28.25;63.80
63051;SHT30;49136;47.416;19.402;2022-07-24T06:44:14;28.38;62.82
63051;SHT30;49136;47.416;19.402;2022-07-24T06:46:39;28.61;62.00
63051;SHT30;49136;47.416;19.402;2022-07-24T06:49:05;28.68;61.16
63051;SHT30;49136;47.416;19.402;2022-07-24T06:51:30;28.92;60.81
63051;SHT30;49136;47.416;19.402;2022-07-24T06:53:55;28.84;60.85
63051;SHT30;49136;47.416;19.402;2022-07-24T06:56:21;29.28;60.26
63051;SHT30;49136;47.416;19.402;2022-07-24T06:58:46;29.41;61.00
63051;SHT30;49136;47.416;19.402;2022-07-24T07:01:12;29.72;61.01
63051;SHT30;49136;47.416;19.402;2022-07-24T07:03:37;29.52;57.49
63051;SHT30;49136;47.416;19.402;2022-07-24T07:06:03;29.24;57.63
63051;SHT30;49136;47.416;19.402;2022-07-24T07:08:28;29.39;57.35
63051;SHT30;49136;47.416;19.402;2022-07-24T07:10:54;29.89;57.58
63051;SHT30;49136;47.416;19.402;2022-07-24T07:13:19;30.15;58.06
63051;SHT30;49136;47.416;19.402;2022-07-24T07:15:44;30.41;57.26
63051;SHT30;49136;47.416;19.402;2022-07-24T07:18:10;30.55;56.17
63051;SHT30;49136;47.416;19.402;2022-07-24T07:20:35;30.49;53.49
63051;SHT30;49136;47.416;19.402;2022-07-24T07:23:01;30.62;55.20
63051;SHT30;49136;47.416;19.402;2022-07-24T07:25:26;30.55;52.18
63051;SHT30;49136;47.416;19.402;2022-07-24T07:27:51;30.20;53.41
63051;SHT30;49136;47.416;19.402;2022-07-24T07:30:17;30.45;54.67
63051;SHT30;49136;47.416;19.402;2022-07-24T07:32:42;30.43;52.31
63051;SHT30;49136;47.416;19.402;2022-07-24T07:35:08;30.39;52.18
63051;SHT30;49136;47.416;19.402;2022-07-24T07:37:34;30.29;53.10
63051;SHT30;49136;47.416;19.402;2022-07-24T07:39:59;30.65;53.05
63051;SHT30;49136;47.416;19.402;2022-07-24T07:42:25;31.04;54.14
63051;SHT30;49136;47.416;19.402;2022-07-24T07:44:51;31.08;53.02
63051;SHT30;49136;47.416;19.402;2022-07-24T07:47:16;31.31;51.30
63051;SHT30;49136;47.416;19.402;2022-07-24T07:49:41;31.28;52.01
63051;SHT30;49136;47.416;19.402;2022-07-24T07:52:07;31.10;53.49
63051;SHT30;49136;47.416;19.402;2022-07-24T07:54:32;31.33;54.76
63051;SHT30;49136;47.416;19.402;2022-07-24T07:56:58;31.32;52.12
63051;SHT30;49136;47.416;19.402;2022-07-24T07:59:23;31.29;51.50
63051;SHT30;49136;47.416;19.402;2022-07-24T08:01:49;31.24;50.80
63051;SHT30;49136;47.416;19.402;2022-07-24T08:04:14;31.25;50.58
63051;SHT30;49136;47.416;19.402;2022-07-24T08:06:40;31.66;50.71
63051;SHT30;49136;47.416;19.402;2022-07-24T08:09:05;31.51;48.62
63051;SHT30;49136;47.416;19.402;2022-07-24T08:11:31;32.05;50.34
63051;SHT30;49136;47.416;19.402;2022-07-24T08:13:56;31.60;49.39
63051;SHT30;49136;47.416;19.402;2022-07-24T08:16:22;31.57;49.16
63051;SHT30;49136;47.416;19.402;2022-07-24T08:18:47;31.88;48.38
63051;SHT30;49136;47.416;19.402;2022-07-24T08:21:13;32.28;47.73
63051;SHT30;49136;47.416;19.402;2022-07-24T08:23:40;32.28;46.48
63051;SHT30;49136;47.416;19.402;2022-07-24T08:26:06;32.07;45.52
63051;SHT30;49136;47.416;19.402;2022-07-24T08:28:31;32.33;46.89
63051;SHT30;49136;47.416;19.402;2022-07-24T08:30:56;32.36;45.84
63051;SHT30;49136;47.416;19.402;2022-07-24T08:33:22;32.84;44.50
63051;SHT30;49136;47.416;19.402;2022-07-24T08:35:47;32.22;45.09
63051;SHT30;49136;47.416;19.402;2022-07-24T08:38:12;32.66;46.80
63051;SHT30;49136;47.416;19.402;2022-07-24T08:40:39;32.50;44.92
63051;SHT30;49136;47.416;19.402;2022-07-24T08:43:06;32.22;45.66
63051;SHT30;49136;47.416;19.402;2022-07-24T08:45:38;32.15;44.77
63051;SHT30;49136;47.416;19.402;2022-07-24T08:48:05;32.18;45.67
63051;SHT30;49136;47.416;19.402;2022-07-24T08:50:32;32.15;44.99
63051;SHT30;49136;47.416;19.402;2022-07-24T08:52:58;32.63;44.97
63051;SHT30;49136;47.416;19.402;2022-07-24T08:55:26;33.17;44.98
63051;SHT30;49136;47.416;19.402;2022-07-24T08:57:52;33.46;44.38
63051;SHT30;49136;47.416;19.402;2022-07-24T09:00:19;33.26;44.24
63051;SHT30;49136;47.416;19.402;2022-07-24T09:02:44;33.33;43.67
63051;SHT30;49136;47.416;19.402;2022-07-24T09:05:11;33.11;44.20
63051;SHT30;49136;47.416;19.402;2022-07-24T09:07:37;32.48;43.85
63051;SHT30;49136;47.416;19.402;2022-07-24T09:10:10;32.56;44.67
63051;SHT30;49136;47.416;19.402;2022-07-24T09:12:42;32.04;44.46
63051;SHT30;49136;47.416;19.402;2022-07-24T09:15:18;32.14;45.65
63051;SHT30;49136;47.416;19.402;2022-07-24T09:17:55;32.49;45.90
63051;SHT30;49136;47.416;19.402;2022-07-24T09:20:22;32.63;45.61
63051;SHT30;49136;47.416;19.402;2022-07-24T09:22:48;32.80;46.24
63051;SHT30;49136;47.416;19.402;2022-07-24T09:25:20;32.60;44.54
63051;SHT30;49136;47.416;19.402;2022-07-24T09:28:00;32.12;45.28
63051;SHT30;49136;47.416;19.402;2022-07-24T09:30:32;32.19;46.30
63051;SHT30;49136;47.416;19.402;2022-07-24T09:38:00;34.25;46.87
63051;SHT30;49136;47.416;19.402;2022-07-24T09:40:37;33.90;46.74
63051;SHT30;49136;47.416;19.402;2022-07-24T09:48:30;33.22;43.15
63051;SHT30;49136;47.416;19.402;2022-07-24T09:51:03;33.54;43.05
63051;SHT30;49136;47.416;19.402;2022-07-24T09:53:33;33.22;43.69
63051;SHT30;49136;47.416;19.402;2022-07-24T09:56:06;33.18;45.72
63051;SHT30;49136;47.416;19.402;2022-07-24T09:58:33;32.39;44.35
63051;SHT30;49136;47.416;19.402;2022-07-24T10:01:00;31.88;43.72
63051;SHT30;49136;47.416;19.402;2022-07-24T10:03:33;32.14;44.81
63051;SHT30;49136;47.416;19.402;2022-07-24T10:06:01;32.64;42.01
63051;SHT30;49136;47.416;19.402;2022-07-24T10:08:28;32.31;44.01
63051;SHT30;49136;47.416;19.402;2022-07-24T10:10:54;32.76;42.05
63051;SHT30;49136;47.416;19.402;2022-07-24T10:13:20;32.67;43.19
63051;SHT30;49136;47.416;19.402;2022-07-24T10:18:20;33.08;41.46
63051;SHT30;49136;47.416;19.402;2022-07-24T10:20:48;33.81;42.11
63051;SHT30;49136;47.416;19.402;2022-07-24T10:23:23;33.93;41.97
63051;SHT30;49136;47.416;19.402;2022-07-24T10:26:06;34.26;41.82
63051;SHT30;49136;47.416;19.402;2022-07-24T10:31:05;33.59;42.57
63051;SHT30;49136;47.416;19.402;2022-07-24T10:33:31;33.94;41.57
63051;SHT30;49136;47.416;19.402;2022-07-24T10:36:00;33.23;42.34
63051;SHT30;49136;47.416;19.402;2022-07-24T10:38:33;33.23;41.60
63051;SHT30;49136;47.416;19.402;2022-07-24T10:41:09;33.27;41.53
63051;SHT30;49136;47.416;19.402;2022-07-24T10:43:37;33.27;41.52
63051;SHT30;49136;47.416;19.402;2022-07-24T10:48:34;33.11;40.65
63051;SHT30;49136;47.416;19.402;2022-07-24T10:51:11;33.39;41.60
63051;SHT30;49136;47.416;19.402;2022-07-24T10:59:06;33.30;43.02
63051;SHT30;49136;47.416;19.402;2022-07-24T11:01:44;33.91;40.62
63051;SHT30;49136;47.416;19.402;2022-07-24T11:07:11;33.84;39.12
63051;SHT30;49136;47.416;19.402;2022-07-24T11:10:03;34.04;39.79
63051;SHT30;49136;47.416;19.402;2022-07-24T11:12:33;33.59;39.06
63051;SHT30;49136;47.416;19.402;2022-07-24T11:15:06;33.47;38.11
63051;SHT30;49136;47.416;19.402;2022-07-24T11:17:50;33.91;38.53
63051;SHT30;49136;47.416;19.402;2022-07-24T11:20:18;33.54;37.03
63051;SHT30;49136;47.416;19.402;2022-07-24T11:22:52;33.09;36.62
63051;SHT30;49136;47.416;19.402;2022-07-24T11:25:26;33.12;36.44
63051;SHT30;49136;47.416;19.402;2022-07-24T11:27:58;32.33;37.44
63051;SHT30;49136;47.416;19.402;2022-07-24T11:30:26;32.28;38.20
63051;SHT30;49136;47.416;19.402;2022-07-24T11:32:52;32.52;39.07
63051;SHT30;49136;47.416;19.402;2022-07-24T11:35:30;32.84;38.18
63051;SHT30;49136;47.416;19.402;2022-07-24T11:37:59;33.30;39.47
63051;SHT30;49136;47.416;19.402;2022-07-24T11:40:25;33.45;38.21
63051;SHT30;49136;47.416;19.402;2022-07-24T11:42:57;33.23;38.50
63051;SHT30;49136;47.416;19.402;2022-07-24T11:45:23;32.85;42.74
63051;SHT30;49136;47.416;19.402;2022-07-24T11:47:49;32.29;40.70
63051;SHT30;49136;47.416;19.402;2022-07-24T11:50:14;32.60;41.77
63051;SHT30;49136;47.416;19.402;2022-07-24T11:52:41;32.85;40.90
63051;SHT30;49136;47.416;19.402;2022-07-24T11:55:10;32.84;41.27
63051;SHT30;49136;47.416;19.402;2022-07-24T11:57:41;32.98;40.43
63051;SHT30;49136;47.416;19.402;2022-07-24T12:00:12;32.63;41.18
63051;SHT30;49136;47.416;19.402;2022-07-24T12:02:49;32.25;41.77
63051;SHT30;49136;47.416;19.402;2022-07-24T12:05:24;32.52;43.17
63051;SHT30;49136;47.416;19.402;2022-07-24T12:07:49;32.76;42.54
63051;SHT30;49136;47.416;19.402;2022-07-24T12:10:19;32.33;42.28
63051;SHT30;49136;47.416;19.402;2022-07-24T12:12:46;32.50;42.40
63051;SHT30;49136;47.416;19.402;2022-07-24T12:15:14;32.22;41.31
63051;SHT30;49136;47.416;19.402;2022-07-24T12:17:57;32.46;41.49
63051;SHT30;49136;47.416;19.402;2022-07-24T12:20:31;32.55;42.26
63051;SHT30;49136;47.416;19.402;2022-07-24T12:22:59;32.67;39.95
63051;SHT30;49136;47.416;19.402;2022-07-24T12:25:26;32.80;39.04
63051;SHT30;49136;47.416;19.402;2022-07-24T12:28:07;33.32;39.00
63051;SHT30;49136;47.416;19.402;2022-07-24T12:30:36;33.53;39.00
63051;SHT30;49136;47.416;19.402;2022-07-24T12:33:08;34.15;36.77
63051;SHT30;49136;47.416;19.402;2022-07-24T12:38:37;33.53;38.88
63051;SHT30;49136;47.416;19.402;2022-07-24T12:41:13;33.32;39.61
63051;SHT30;49136;47.416;19.402;2022-07-24T12:43:53;33.57;39.13
63051;SHT30;49136;47.416;19.402;2022-07-24T12:46:28;33.76;38.58
63051;SHT30;49136;47.416;19.402;2022-07-24T12:54:33;33.84;37.93
63051;SHT30;49136;47.416;19.402;2022-07-24T12:57:06;33.91;37.85
63051;SHT30;49136;47.416;19.402;2022-07-24T12:59:34;33.87;37.82
63051;SHT30;49136;47.416;19.402;2022-07-24T13:02:05;34.26;37.39
63051;SHT30;49136;47.416;19.402;2022-07-24T13:04:31;34.63;36.36
63051;SHT30;49136;47.416;19.402;2022-07-24T13:06:58;34.54;37.85
63051;SHT30;49136;47.416;19.402;2022-07-24T13:09:25;34.20;36.27
63051;SHT30;49136;47.416;19.402;2022-07-24T13:11:52;33.95;37.40
63051;SHT30;49136;47.416;19.402;2022-07-24T13:14:20;33.84;36.54
63051;SHT30;49136;47.416;19.402;2022-07-24T13:16:47;34.33;38.70
63051;SHT30;49136;47.416;19.402;2022-07-24T13:19:14;33.84;35.91
63051;SHT30;49136;47.416;19.402;2022-07-24T13:21:40;33.97;35.79
63051;SHT30;49136;47.416;19.402;2022-07-24T13:24:07;33.71;36.89
63051;SHT30;49136;47.416;19.402;2022-07-24T13:26:33;33.56;35.34
63051;SHT30;49136;47.416;19.402;2022-07-24T13:28:59;33.11;36.19
63051;SHT30;49136;47.416;19.402;2022-07-24T13:31:25;33.63;35.85
63051;SHT30;49136;47.416;19.402;2022-07-24T13:33:50;33.53;35.98
63051;SHT30;49136;47.416;19.402;2022-07-24T13:36:17;34.04;34.47
63051;SHT30;49136;47.416;19.402;2022-07-24T13:38:43;34.08;38.55
63051;SHT30;49136;47.416;19.402;2022-07-24T13:41:08;33.90;33.78
63051;SHT30;49136;47.416;19.402;2022-07-24T13:43:34;33.80;34.68
63051;SHT30;49136;47.416;19.402;2022-07-24T13:45:59;33.88;35.07
63051;SHT30;49136;47.416;19.402;2022-07-24T13:48:25;33.11;35.52
63051;SHT30;49136;47.416;19.402;2022-07-24T13:50:50;32.91;33.38
63051;SHT30;49136;47.416;19.402;2022-07-24T13:53:16;32.77;32.97
63051;SHT30;49136;47.416;19.402;2022-07-24T13:55:41;32.94;31.71
63051;SHT30;49136;47.416;19.402;2022-07-24T13:58:06;33.18;31.72
63051;SHT30;49136;47.416;19.402;2022-07-24T14:00:32;32.73;31.72
63051;SHT30;49136;47.416;19.402;2022-07-24T14:02:58;32.90;32.64
63051;SHT30;49136;47.416;19.402;2022-07-24T14:05:24;33.37;32.31
63051;SHT30;49136;47.416;19.402;2022-07-24T14:07:51;33.50;32.14
63051;SHT30;49136;47.416;19.402;2022-07-24T14:10:16;33.05;31.10
63051;SHT30;49136;47.416;19.402;2022-07-24T14:12:42;33.37;32.01
63051;SHT30;49136;47.416;19.402;2022-07-24T14:15:07;33.52;33.46
63051;SHT30;49136;47.416;19.402;2022-07-24T14:17:38;33.53;30.45
63051;SHT30;49136;47.416;19.402;2022-07-24T14:20:04;33.04;30.78
63051;SHT30;49136;47.416;19.402;2022-07-24T14:22:30;33.19;30.73
63051;SHT30;49136;47.416;19.402;2022-07-24T14:24:56;32.90;31.34
63051;SHT30;49136;47.416;19.402;2022-07-24T14:27:21;32.94;31.87
63051;SHT30;49136;47.416;19.402;2022-07-24T14:29:46;33.33;30.51
63051;SHT30;49136;47.416;19.402;2022-07-24T14:32:12;33.39;30.76
63051;SHT30;49136;47.416;19.402;2022-07-24T14:34:37;33.54;30.66
63051;SHT30;49136;47.416;19.402;2022-07-24T14:37:03;33.82;29.73
63051;SHT30;49136;47.416;19.402;2022-07-24T14:39:29;34.00;31.24
63051;SHT30;49136;47.416;19.402;2022-07-24T14:41:56;33.98;31.64
63051;SHT30;49136;47.416;19.402;2022-07-24T14:44:21;33.73;31.10
63051;SHT30;49136;47.416;19.402;2022-07-24T14:46:47;33.23;33.49
63051;SHT30;49136;47.416;19.402;2022-07-24T14:49:12;33.08;32.44
63051;SHT30;49136;47.416;19.402;2022-07-24T14:51:38;33.22;33.51
63051;SHT30;49136;47.416;19.402;2022-07-24T14:54:04;33.09;31.78
63051;SHT30;49136;47.416;19.402;2022-07-24T14:56:30;33.12;33.27
63051;SHT30;49136;47.416;19.402;2022-07-24T14:58:56;33.18;31.64
63051;SHT30;49136;47.416;19.402;2022-07-24T15:01:21;32.97;31.81
63051;SHT30;49136;47.416;19.402;2022-07-24T15:03:47;33.07;32.18
63051;SHT30;49136;47.416;19.402;2022-07-24T15:06:13;33.00;31.90
63051;SHT30;49136;47.416;19.402;2022-07-24T15:08:39;32.90;32.58
63051;SHT30;49136;47.416;19.402;2022-07-24T15:11:05;32.70;33.31
63051;SHT30;49136;47.416;19.402;2022-07-24T15:13:30;32.66;33.05
63051;SHT30;49136;47.416;19.402;2022-07-24T15:15:56;32.60;31.59
63051;SHT30;49136;47.416;19.402;2022-07-24T15:18:22;32.81;31.65
63051;SHT30;49136;47.416;19.402;2022-07-24T15:20:48;32.61;31.51
63051;SHT30;49136;47.416;19.402;2022-07-24T15:23:13;32.48;33.34
63051;SHT30;49136;47.416;19.402;2022-07-24T15:25:38;32.48;32.76
63051;SHT30;49136;47.416;19.402;2022-07-24T15:28:04;32.76;31.55
63051;SHT30;49136;47.416;19.402;2022-07-24T15:30:30;32.88;31.58
63051;SHT30;49136;47.416;19.402;2022-07-24T15:32:56;32.70;32.54
63051;SHT30;49136;47.416;19.402;2022-07-24T15:35:21;32.66;32.33
63051;SHT30;49136;47.416;19.402;2022-07-24T15:37:47;32.61;31.85
63051;SHT30;49136;47.416;19.402;2022-07-24T15:40:12;32.53;35.23
63051;SHT30;49136;47.416;19.402;2022-07-24T15:42:38;32.49;33.58
63051;SHT30;49136;47.416;19.402;2022-07-24T15:45:04;32.37;31.67
63051;SHT30;49136;47.416;19.402;2022-07-24T15:47:29;32.14;31.63